createdAt,value
2018-08-19T00:01:32.085Z,25.50
2018-08-19T00:04:00.706Z,26.07
2018-08-19T00:06:29.465Z,24.53
2018-08-19T00:09:02.365Z,22.90
2018-08-19T00:11:31.035Z,23.27
2018-08-19T00:13:59.773Z,23.83
2018-08-19T00:16:28.614Z,22.87
2018-08-19T00:18:57.384Z,23.13
2018-08-19T00:21:26.113Z,22.60
2018-08-19T00:23:54.813Z,21.30
2018-08-19T00:26:23.426Z,24.27
2018-08-19T00:28:52.303Z,25.17
2018-08-19T00:31:21.198Z,22.40
2018-08-19T00:33:49.768Z,29.30
2018-08-19T00:36:32.293Z,30.70
2018-08-19T00:39:01.033Z,33.00
2018-08-19T00:41:29.669Z,28.23
2018-08-19T00:43:58.297Z,33.83
2018-08-19T00:46:30.440Z,32.60
2018-08-19T00:49:00.754Z,36.50
2018-08-19T00:51:29.569Z,28.10
2018-08-19T00:53:58.619Z,29.97
2018-08-19T00:56:27.790Z,29.93
2018-08-19T00:58:56.504Z,28.07
2018-08-19T01:01:36.321Z,26.67
2018-08-19T01:04:07.186Z,26.83
2018-08-19T01:06:41.014Z,24.73
2018-08-19T01:09:10.514Z,27.60
2018-08-19T01:11:41.733Z,31.53
2018-08-19T01:14:12.664Z,28.43
2018-08-19T01:16:41.576Z,28.80
2018-08-19T01:19:10.968Z,29.33
2018-08-19T01:21:39.722Z,26.30
2018-08-19T01:24:10.813Z,27.23
2018-08-19T01:26:40.751Z,28.17
2018-08-19T01:29:10.477Z,31.30
2018-08-19T01:31:39.418Z,24.97
2018-08-19T01:34:11.532Z,25.97
2018-08-19T01:36:40.629Z,27.20
2018-08-19T01:39:11.258Z,29.97
2018-08-19T01:41:40.880Z,25.03
2018-08-19T01:44:13.018Z,24.30
2018-08-19T01:46:47.011Z,25.07
2018-08-19T01:49:16.014Z,23.50
2018-08-19T01:51:45.106Z,28.13
2018-08-19T01:54:19.985Z,32.43
2018-08-19T01:56:55.173Z,32.53
2018-08-19T01:59:31.903Z,27.57
2018-08-19T02:02:02.616Z,27.43
2018-08-19T02:04:32.379Z,25.97
2018-08-19T02:07:01.140Z,27.53
2018-08-19T02:09:29.845Z,31.23
2018-08-19T02:11:59.760Z,29.60
2018-08-19T02:14:28.447Z,24.13
2018-08-19T02:16:57.673Z,25.43
2018-08-19T02:19:26.294Z,28.63
2018-08-19T02:21:55.061Z,30.57
2018-08-19T02:24:23.790Z,29.93
2018-08-19T02:26:52.497Z,30.27
2018-08-19T02:29:33.591Z,30.67
2018-08-19T02:32:03.516Z,29.03
2018-08-19T02:34:34.605Z,27.87
2018-08-19T02:37:07.033Z,29.23
2018-08-19T02:39:38.234Z,25.43
2018-08-19T02:42:24.274Z,29.87
2018-08-19T02:44:55.235Z,25.50
2018-08-19T02:47:23.984Z,25.60
2018-08-19T02:49:53.038Z,26.80
2018-08-19T02:52:26.996Z,29.20
2018-08-19T02:54:56.582Z,31.90
2018-08-19T02:57:25.828Z,30.30
2018-08-19T02:59:54.486Z,30.87
2018-08-19T03:02:26.054Z,33.40
2018-08-19T03:04:55.594Z,33.27
2018-08-19T03:07:26.434Z,34.50
2018-08-19T03:10:10.800Z,33.27
2018-08-19T03:12:40.039Z,32.93
2018-08-19T03:15:10.848Z,34.10
2018-08-19T03:17:39.932Z,33.30
2018-08-19T03:20:13.084Z,34.83
2018-08-19T03:22:42.580Z,32.00
2018-08-19T03:25:11.904Z,29.73
2018-08-19T03:27:40.632Z,27.90
2018-08-19T03:30:11.365Z,30.40
2018-08-19T03:32:46.424Z,30.33
2018-08-19T03:35:17.411Z,32.03
2018-08-19T03:37:46.329Z,28.07
2018-08-19T03:40:15.105Z,31.37
2018-08-19T03:42:43.765Z,31.07
2018-08-19T03:45:17.614Z,33.73
2018-08-19T03:47:46.859Z,33.53
2018-08-19T03:50:21.817Z,33.30
2018-08-19T03:52:51.097Z,33.13
2018-08-19T03:55:25.376Z,33.87
2018-08-19T03:57:58.037Z,30.70
2018-08-19T04:00:28.078Z,31.57
2018-08-19T04:02:59.057Z,33.10
2018-08-19T04:05:40.224Z,31.53
2018-08-19T04:08:10.388Z,36.17
2018-08-19T04:10:40.388Z,31.17
2018-08-19T04:13:35.354Z,31.63
2018-08-19T04:16:05.224Z,31.47
2018-08-19T04:18:36.992Z,32.23
2018-08-19T04:21:08.236Z,35.50
2018-08-19T04:23:37.357Z,37.27
2018-08-19T04:26:06.730Z,38.80
2018-08-19T04:28:37.153Z,38.17
2018-08-19T04:31:11.867Z,43.40
2018-08-19T04:33:42.603Z,38.70
2018-08-19T04:36:12.909Z,35.70
2018-08-19T04:38:42.073Z,35.60
2018-08-19T04:41:11.057Z,33.93
2018-08-19T04:43:39.729Z,32.07
2018-08-19T04:46:08.484Z,32.90
2018-08-19T04:48:37.130Z,32.20
2018-08-19T04:51:05.931Z,34.63
2018-08-19T04:53:35.119Z,32.23
2018-08-19T04:56:03.920Z,31.37
2018-08-19T04:58:32.745Z,32.80
2018-08-19T05:01:01.521Z,32.70
2018-08-19T05:03:30.184Z,34.67
2018-08-19T05:06:00.296Z,34.67
2018-08-19T05:08:29.096Z,32.00
2018-08-19T05:10:59.033Z,31.00
2018-08-19T05:13:29.301Z,30.90
2018-08-19T05:15:58.243Z,33.00
2018-08-19T05:18:27.056Z,30.33
2018-08-19T05:21:02.738Z,31.23
2018-08-19T05:23:31.712Z,34.80
2018-08-19T05:26:00.480Z,35.57
2018-08-19T05:28:29.104Z,34.40
2018-08-19T05:30:57.737Z,31.47
2018-08-19T05:33:27.177Z,31.87
2018-08-19T05:35:55.778Z,31.13
2018-08-19T05:38:25.469Z,27.13
2018-08-19T05:40:59.794Z,27.53
2018-08-19T05:43:29.013Z,29.53
2018-08-19T05:45:58.927Z,29.53
2018-08-19T05:48:27.896Z,31.07
2018-08-19T05:50:56.971Z,28.43
2018-08-19T05:53:25.664Z,30.83
2018-08-19T05:55:54.624Z,28.90
2018-08-19T05:58:23.433Z,28.13
2018-08-19T06:00:59.421Z,27.73
2018-08-19T06:03:28.163Z,27.83
2018-08-19T06:05:57.518Z,27.97
2018-08-19T06:08:27.220Z,31.83
2018-08-19T06:10:55.955Z,28.73
2018-08-19T06:13:24.653Z,30.17
2018-08-19T06:15:53.304Z,30.03
2018-08-19T06:18:21.984Z,30.90
2018-08-19T06:20:50.685Z,29.60
2018-08-19T06:23:21.633Z,32.17
2018-08-19T06:25:50.288Z,31.77
2018-08-19T06:28:19.050Z,31.87
2018-08-19T06:30:47.630Z,33.10
2018-08-19T06:33:16.273Z,31.93
2018-08-19T06:35:44.876Z,32.73
2018-08-19T06:38:13.583Z,33.07
2018-08-19T06:40:42.709Z,33.33
2018-08-19T06:43:11.434Z,32.67
2018-08-19T06:45:40.262Z,32.53
2018-08-19T06:48:09.276Z,31.50
2018-08-19T06:50:37.993Z,30.73
2018-08-19T06:53:06.869Z,29.67
2018-08-19T06:55:35.593Z,29.00
2018-08-19T06:58:04.318Z,28.83
2018-08-19T07:00:33.402Z,26.17
2018-08-19T07:03:03.580Z,26.30
2018-08-19T07:05:33.169Z,26.67
2018-08-19T07:08:02.149Z,25.63
2018-08-19T07:10:38.896Z,23.43
2018-08-19T07:13:10.836Z,21.53
2018-08-19T07:15:41.009Z,19.03
2018-08-19T07:18:12.985Z,18.70
2018-08-19T07:20:42.910Z,17.93
2018-08-19T07:23:12.100Z,20.23
2018-08-19T07:25:42.454Z,15.10
2018-08-19T07:28:12.036Z,13.67
2018-08-19T07:30:41.140Z,10.90
2018-08-19T07:33:09.933Z,12.60
2018-08-19T07:35:38.701Z,14.53
2018-08-19T07:38:07.414Z,10.87
2018-08-19T07:40:36.085Z,10.13
2018-08-19T07:43:04.869Z,9.97
2018-08-19T07:45:33.563Z,12.07
2018-08-19T07:48:02.296Z,8.63
2018-08-19T07:50:31.997Z,9.13
2018-08-19T07:53:00.950Z,8.10
2018-08-19T07:55:29.657Z,8.20
2018-08-19T07:57:58.380Z,7.23
2018-08-19T08:00:32.165Z,8.80
2018-08-19T08:03:00.777Z,8.50
2018-08-19T08:06:01.099Z,6.53
2018-08-19T08:08:29.799Z,8.20
2018-08-19T08:10:58.561Z,7.90
2018-08-19T08:13:27.339Z,7.47
2018-08-19T08:15:57.375Z,9.77
2018-08-19T08:18:26.049Z,10.13
2018-08-19T08:21:00.553Z,8.77
2018-08-19T08:23:29.756Z,6.90
2018-08-19T08:25:58.424Z,7.60
2018-08-19T08:28:27.216Z,6.97
2018-08-19T08:30:55.949Z,8.60
2018-08-19T08:33:24.623Z,8.67
2018-08-19T08:35:57.252Z,9.43
2018-08-19T08:38:26.329Z,6.77
2018-08-19T08:40:55.228Z,6.53
2018-08-19T08:43:23.827Z,6.93
2018-08-19T08:45:55.059Z,7.23
2018-08-19T08:48:23.972Z,6.87
2018-08-19T08:50:52.634Z,8.23
2018-08-19T08:53:21.439Z,7.13
2018-08-19T08:55:57.425Z,9.03
2018-08-19T08:58:26.300Z,6.97
2018-08-19T09:00:55.108Z,7.43
2018-08-19T09:03:23.752Z,9.80
2018-08-19T09:05:54.129Z,9.30
2018-08-19T09:08:22.894Z,8.47
2018-08-19T09:10:52.082Z,7.90
2018-08-19T09:13:20.965Z,7.30
2018-08-19T09:15:49.681Z,6.03
2018-08-19T09:18:18.480Z,9.13
2018-08-19T09:20:47.069Z,7.83
2018-08-19T09:23:15.860Z,6.73
2018-08-19T09:25:44.726Z,6.20
2018-08-19T09:28:13.453Z,6.63
2018-08-19T09:30:43.557Z,6.57
2018-08-19T09:33:13.289Z,6.77
2018-08-19T09:35:43.080Z,11.77
2018-08-19T09:38:14.764Z,7.63
2018-08-19T09:40:43.974Z,6.47
2018-08-19T09:43:13.088Z,8.30
2018-08-19T09:45:42.242Z,6.77
2018-08-19T09:48:11.435Z,7.23
2018-08-19T09:50:41.301Z,9.13
2018-08-19T09:53:10.097Z,7.30
2018-08-19T09:55:39.672Z,7.03
2018-08-19T09:58:19.718Z,7.17
2018-08-19T10:00:55.787Z,7.17
2018-08-19T10:03:25.313Z,6.73
2018-08-19T10:05:54.045Z,7.63
2018-08-19T10:08:23.666Z,8.30
2018-08-19T10:10:53.022Z,7.50
2018-08-19T10:13:21.788Z,6.60
2018-08-19T10:15:50.574Z,7.70
2018-08-19T10:18:19.261Z,7.03
2018-08-19T10:20:48.077Z,6.50
2018-08-19T10:23:16.709Z,7.13
2018-08-19T10:25:46.618Z,9.77
2018-08-19T10:28:15.415Z,5.93
2018-08-19T10:30:49.228Z,6.40
2018-08-19T10:33:22.296Z,7.90
2018-08-19T10:35:51.679Z,5.83
2018-08-19T10:38:20.576Z,8.33
2018-08-19T10:40:58.007Z,6.43
2018-08-19T10:43:28.926Z,6.33
2018-08-19T10:45:58.416Z,7.63
2018-08-19T10:48:27.181Z,7.57
2018-08-19T10:50:55.978Z,6.00
2018-08-19T10:53:26.678Z,8.87
2018-08-19T10:55:57.912Z,7.40
2018-08-19T10:58:26.680Z,5.90
2018-08-19T11:00:55.380Z,11.13
2018-08-19T11:03:24.535Z,7.10
2018-08-19T11:05:54.699Z,9.43
2018-08-19T11:08:23.697Z,6.27
2018-08-19T11:10:52.356Z,8.40
2018-08-19T11:13:23.212Z,9.70
2018-08-19T11:15:53.037Z,9.07
2018-08-19T11:18:48.926Z,14.27
2018-08-19T11:21:25.640Z,8.77
2018-08-19T11:23:55.354Z,5.73
2018-08-19T11:26:25.185Z,6.95
2018-08-19T11:28:59.001Z,8.07
2018-08-19T11:31:30.664Z,5.83
2018-08-19T11:34:01.843Z,5.50
2018-08-19T11:36:47.792Z,5.50
2018-08-19T11:39:17.442Z,5.75
2018-08-19T11:41:46.245Z,6.42
2018-08-19T11:44:16.289Z,5.47
2018-08-19T11:46:45.038Z,5.08
2018-08-19T11:49:15.111Z,5.92
2018-08-19T11:51:57.186Z,5.60
2018-08-19T11:54:26.561Z,4.90
2018-08-19T11:57:02.755Z,4.90
2018-08-19T11:59:46.323Z,5.37
2018-08-19T12:02:24.277Z,4.80
2018-08-19T12:04:52.998Z,4.83
2018-08-19T12:07:21.667Z,5.05
2018-08-19T12:09:56.091Z,5.30
2018-08-19T12:12:42.105Z,5.12
2018-08-19T12:15:10.960Z,6.42
2018-08-19T12:17:39.642Z,6.75
2018-08-19T12:20:08.292Z,5.12
2018-08-19T12:22:37.054Z,4.90
2018-08-19T12:25:05.960Z,4.72
2018-08-19T12:27:34.717Z,6.67
2018-08-19T12:30:11.533Z,5.97
2018-08-19T12:32:40.249Z,4.97
2018-08-19T12:35:15.502Z,4.60
2018-08-19T12:37:44.285Z,5.15
2018-08-19T12:40:13.048Z,5.53
2018-08-19T12:42:47.625Z,5.50
2018-08-19T12:45:16.232Z,6.15
2018-08-19T12:47:44.933Z,6.25
2018-08-19T12:50:15.439Z,4.23
2018-08-19T12:52:44.253Z,7.30
2018-08-19T12:55:15.753Z,7.53
2018-08-19T12:57:45.043Z,4.53
2018-08-19T13:00:15.967Z,5.47
2018-08-19T13:02:47.831Z,5.12
2018-08-19T13:05:17.492Z,6.67
2018-08-19T13:07:46.320Z,11.90
2018-08-19T13:10:15.352Z,9.07
2018-08-19T13:12:49.189Z,5.50
2018-08-19T13:15:17.890Z,5.70
2018-08-19T13:17:46.693Z,5.62
2018-08-19T13:20:15.337Z,6.97
2018-08-19T13:22:51.152Z,5.75
2018-08-19T13:25:21.550Z,5.85
2018-08-19T13:27:50.328Z,7.15
2018-08-19T13:30:19.867Z,4.40
2018-08-19T13:32:49.042Z,4.58
2018-08-19T13:35:19.067Z,6.08
2018-08-19T13:37:47.733Z,5.53
2018-08-19T13:40:16.853Z,13.60
2018-08-19T13:42:45.521Z,4.92
2018-08-19T13:45:15.333Z,6.25
2018-08-19T13:47:46.474Z,6.20
2018-08-19T13:50:15.232Z,5.87
2018-08-19T13:52:44.632Z,4.55
2018-08-19T13:55:16.284Z,4.45
2018-08-19T13:57:44.873Z,4.53
2018-08-19T14:00:20.709Z,4.37
2018-08-19T14:02:49.890Z,5.75
2018-08-19T14:05:18.713Z,6.30
2018-08-19T14:07:47.318Z,4.80
2018-08-19T14:10:16.333Z,4.15
2018-08-19T14:12:45.062Z,5.33
2018-08-19T14:15:13.984Z,8.90
2018-08-19T14:17:42.846Z,4.50
2018-08-19T14:20:11.972Z,4.47
2018-08-19T14:22:41.821Z,4.45
2018-08-19T14:25:11.708Z,3.87
2018-08-19T14:27:40.385Z,6.28
2018-08-19T14:30:10.731Z,4.70
2018-08-19T14:32:41.405Z,5.50
2018-08-19T14:35:10.222Z,5.75
2018-08-19T14:37:40.182Z,5.03
2018-08-19T14:40:11.211Z,4.40
2018-08-19T14:42:40.127Z,5.45
2018-08-19T14:45:08.906Z,4.78
2018-08-19T14:47:37.600Z,4.85
2018-08-19T14:50:13.668Z,5.80
2018-08-19T14:52:42.324Z,4.47
2018-08-19T14:55:11.072Z,4.67
2018-08-19T14:57:39.724Z,5.40
2018-08-19T15:00:10.496Z,5.83
2018-08-19T15:02:39.343Z,4.70
2018-08-19T15:05:14.916Z,6.25
2018-08-19T15:07:43.710Z,5.92
2018-08-19T15:10:15.896Z,5.20
2018-08-19T15:12:44.536Z,4.53
2018-08-19T15:15:13.177Z,5.87
2018-08-19T15:17:46.209Z,7.58
2018-08-19T15:20:18.260Z,4.73
2018-08-19T15:22:47.078Z,5.37
2018-08-19T15:25:15.765Z,5.53
2018-08-19T15:27:49.940Z,4.80
2018-08-19T15:30:35.142Z,3.90
2018-08-19T15:33:04.079Z,5.28
2018-08-19T15:35:32.537Z,4.72
2018-08-19T15:38:01.138Z,4.28
2018-08-19T15:40:38.142Z,4.47
2018-08-19T15:43:07.033Z,4.08
2018-08-19T15:45:35.726Z,4.95
2018-08-19T15:48:05.189Z,4.83
2018-08-19T15:50:33.958Z,5.03
2018-08-19T15:53:03.903Z,4.58
2018-08-19T15:55:32.726Z,5.47
2018-08-19T15:58:03.119Z,4.45
2018-08-19T16:00:42.050Z,4.80
2018-08-19T16:03:12.157Z,6.42
2018-08-19T16:05:40.863Z,5.87
2018-08-19T16:08:09.632Z,4.67
2018-08-19T16:10:38.456Z,5.20
2018-08-19T16:13:10.003Z,4.53
2018-08-19T16:15:38.737Z,4.65
2018-08-19T16:18:07.917Z,5.12
2018-08-19T16:20:36.745Z,4.53
2018-08-19T16:23:06.353Z,4.20
2018-08-19T16:25:35.093Z,4.33
2018-08-19T16:28:04.878Z,7.00
2018-08-19T16:30:33.621Z,4.28
2018-08-19T16:33:02.316Z,4.72
2018-08-19T16:35:31.209Z,6.70
2018-08-19T16:37:59.865Z,4.67
2018-08-19T16:40:28.789Z,6.22
2018-08-19T16:42:57.820Z,5.45
2018-08-19T16:45:26.525Z,5.22
2018-08-19T16:47:55.494Z,4.87
2018-08-19T16:50:24.434Z,5.90
2018-08-19T16:52:53.037Z,5.17
2018-08-19T16:55:21.721Z,5.95
2018-08-19T16:57:50.415Z,9.35
2018-08-19T17:00:19.177Z,4.90
2018-08-19T17:02:47.888Z,9.20
2018-08-19T17:05:29.530Z,9.13
2018-08-19T17:07:58.249Z,5.33
2018-08-19T17:10:28.110Z,5.22
2018-08-19T17:12:57.641Z,7.62
2018-08-19T17:15:26.711Z,4.95
2018-08-19T17:17:55.628Z,7.58
2018-08-19T17:20:24.377Z,6.75
2018-08-19T17:22:53.031Z,5.53
2018-08-19T17:25:21.886Z,6.60
2018-08-19T17:27:51.507Z,5.65
2018-08-19T17:30:20.263Z,8.20
2018-08-19T17:33:03.016Z,7.07
2018-08-19T17:35:31.627Z,7.50
2018-08-19T17:38:00.435Z,6.33
2018-08-19T17:40:30.942Z,6.43
2018-08-19T17:43:00.222Z,6.53
2018-08-19T17:45:29.054Z,7.20
2018-08-19T17:47:57.825Z,6.33
2018-08-19T17:50:28.754Z,7.67
2018-08-19T17:52:58.648Z,9.20
2018-08-19T17:55:27.462Z,13.97
2018-08-19T17:57:57.986Z,11.10
2018-08-19T18:00:26.593Z,10.20
2018-08-19T18:02:55.359Z,12.00
2018-08-19T18:05:24.070Z,12.70
2018-08-19T18:07:53.814Z,9.50
2018-08-19T18:10:22.774Z,8.33
2018-08-19T18:12:51.974Z,9.63
2018-08-19T18:15:21.857Z,8.00
2018-08-19T18:18:01.746Z,11.50
2018-08-19T18:20:37.401Z,15.67
2018-08-19T18:23:13.074Z,18.03
2018-08-19T18:25:43.189Z,25.57
2018-08-19T18:28:17.031Z,23.43
2018-08-19T18:30:48.535Z,18.23
2018-08-19T18:33:17.205Z,12.23
2018-08-19T18:35:45.900Z,12.37
2018-08-19T18:38:25.457Z,11.53
2018-08-19T18:40:54.281Z,13.83
2018-08-19T18:43:23.913Z,11.33
2018-08-19T18:45:53.145Z,17.17
2018-08-19T18:48:22.481Z,21.77
2018-08-19T18:50:55.517Z,15.60
2018-08-19T18:53:25.061Z,11.63
2018-08-19T18:55:53.672Z,13.03
2018-08-19T18:58:22.229Z,13.23
2018-08-19T19:00:57.088Z,12.83
2018-08-19T19:03:26.086Z,15.90
2018-08-19T19:05:56.925Z,15.10
2018-08-19T19:08:25.704Z,11.93
2018-08-19T19:10:59.513Z,11.63
2018-08-19T19:13:30.531Z,12.70
2018-08-19T19:15:59.566Z,11.80
2018-08-19T19:18:29.591Z,14.23
2018-08-19T19:21:02.888Z,12.93
2018-08-19T19:23:39.579Z,10.10
2018-08-19T19:26:09.167Z,16.87
2018-08-19T19:28:38.278Z,12.27
2018-08-19T19:31:12.627Z,15.17
2018-08-19T19:33:41.596Z,12.27
2018-08-19T19:36:16.410Z,12.93
2018-08-19T19:38:56.588Z,14.90
2018-08-19T19:41:27.896Z,12.47
2018-08-19T19:43:56.914Z,10.57
2018-08-19T19:46:26.211Z,9.87
2018-08-19T19:48:55.454Z,12.80
2018-08-19T19:51:24.290Z,11.00
2018-08-19T19:53:52.968Z,12.57
2018-08-19T19:56:21.642Z,9.53
2018-08-19T19:58:50.947Z,13.90
2018-08-19T20:01:19.638Z,11.63
2018-08-19T20:03:52.827Z,10.83
2018-08-19T20:06:24.203Z,12.70
2018-08-19T20:08:53.702Z,12.13
2018-08-19T20:11:29.797Z,11.40
2018-08-19T20:14:00.028Z,11.77
2018-08-19T20:16:30.101Z,10.80
2018-08-19T20:18:58.968Z,9.53
2018-08-19T20:21:28.603Z,13.03
2018-08-19T20:23:58.520Z,9.23
2018-08-19T20:26:28.248Z,11.70
2018-08-19T20:28:58.255Z,12.73
2018-08-19T20:31:27.920Z,11.90
2018-08-19T20:33:56.899Z,10.33
2018-08-19T20:36:25.645Z,11.80
2018-08-19T20:38:54.364Z,10.93
2018-08-19T20:41:23.269Z,10.97
2018-08-19T20:43:52.977Z,13.00
2018-08-19T20:46:21.645Z,11.80
2018-08-19T20:48:50.336Z,11.47
2018-08-19T20:51:19.772Z,9.47
2018-08-19T20:53:48.660Z,10.57
2018-08-19T20:56:17.315Z,10.33
2018-08-19T20:58:46.109Z,11.50
2018-08-19T21:01:20.040Z,11.93
2018-08-19T21:03:48.717Z,13.77
2018-08-19T21:06:17.285Z,10.43
2018-08-19T21:08:45.912Z,12.90
2018-08-19T21:11:14.538Z,11.33
2018-08-19T21:13:43.115Z,12.33
2018-08-19T21:16:11.880Z,12.37
2018-08-19T21:18:40.535Z,12.60
2018-08-19T21:21:09.140Z,13.30
2018-08-19T21:23:38.801Z,11.47
2018-08-19T21:26:07.737Z,11.27
2018-08-19T21:28:36.439Z,11.87
2018-08-19T21:31:05.128Z,11.30
2018-08-19T21:33:33.826Z,12.87
2018-08-19T21:36:02.550Z,14.13
2018-08-19T21:38:31.254Z,11.40
2018-08-19T21:40:59.941Z,11.37
2018-08-19T21:43:30.409Z,12.87
2018-08-19T21:46:00.577Z,12.07
2018-08-19T21:48:29.245Z,11.07
2018-08-19T21:50:57.848Z,11.63
2018-08-19T21:53:26.533Z,10.87
2018-08-19T21:55:55.180Z,13.03
2018-08-19T21:58:23.884Z,13.30
2018-08-19T22:01:00.181Z,12.37
2018-08-19T22:03:34.230Z,10.17
2018-08-19T22:06:08.592Z,10.63
2018-08-19T22:08:37.229Z,11.90
2018-08-19T22:11:05.913Z,11.43
2018-08-19T22:13:36.658Z,10.93
2018-08-19T22:16:06.868Z,15.00
2018-08-19T22:18:36.902Z,10.30
2018-08-19T22:21:14.224Z,11.57
2018-08-19T22:23:44.381Z,12.47
2018-08-19T22:26:14.373Z,10.77
2018-08-19T22:28:43.360Z,10.50
2018-08-19T22:31:23.648Z,11.67
2018-08-19T22:33:54.601Z,11.67
2018-08-19T22:36:23.400Z,10.03
2018-08-19T22:38:52.958Z,10.53
2018-08-19T22:41:28.538Z,9.77
2018-08-19T22:43:57.778Z,10.17
2018-08-19T22:46:27.131Z,10.27
2018-08-19T22:48:56.336Z,12.57
2018-08-19T22:51:25.153Z,10.47
2018-08-19T22:53:55.325Z,10.20
2018-08-19T22:56:24.241Z,9.67
2018-08-19T22:58:52.901Z,10.07
2018-08-19T23:01:21.976Z,9.87
2018-08-19T23:03:59.512Z,9.77
2018-08-19T23:06:28.886Z,11.37
2018-08-19T23:08:58.280Z,9.33
2018-08-19T23:11:48.324Z,11.83
2018-08-19T23:14:28.092Z,9.93
2018-08-19T23:16:56.711Z,11.23
2018-08-19T23:19:25.428Z,10.40
2018-08-19T23:21:54.140Z,9.67
2018-08-19T23:24:23.461Z,9.87
2018-08-19T23:26:52.114Z,8.83
2018-08-19T23:29:20.799Z,10.77
2018-08-19T23:31:49.528Z,11.77
2018-08-19T23:34:18.097Z,10.10
2018-08-19T23:36:46.896Z,9.97
2018-08-19T23:39:15.523Z,10.40
2018-08-19T23:41:44.193Z,10.33
2018-08-19T23:44:13.889Z,10.50
2018-08-19T23:46:42.549Z,10.40
2018-08-19T23:49:11.273Z,10.93
2018-08-19T23:51:40.241Z,9.77
2018-08-19T23:54:08.961Z,10.47
2018-08-19T23:56:37.726Z,9.70
2018-08-19T23:59:06.427Z,10.03
